createdAt,value
2023-02-22T00:00:48.344Z,11.68
2023-02-22T00:03:27.140Z,10.75
2023-02-22T00:05:59.788Z,10.73
2023-02-22T00:08:32.248Z,10.88
2023-02-22T00:11:03.851Z,11.93
2023-02-22T00:13:30.938Z,11.57
2023-02-22T00:16:00.057Z,10.98
2023-02-22T00:18:28.831Z,10.80
2023-02-22T00:21:01.024Z,11.20
2023-02-22T00:23:31.010Z,11.38
2023-02-22T00:25:59.612Z,10.07
2023-02-22T00:28:26.663Z,10.60
2023-02-22T00:30:54.756Z,10.88
2023-02-22T00:33:22.019Z,11.30
2023-02-22T00:35:49.310Z,10.48
2023-02-22T00:38:18.581Z,11.38
2023-02-22T00:40:45.529Z,12.07
2023-02-22T00:43:12.841Z,11.23
2023-02-22T00:45:41.782Z,11.48
2023-02-22T00:48:09.308Z,11.90
2023-02-22T00:50:36.655Z,9.82
2023-02-22T00:53:05.108Z,13.10
2023-02-22T00:55:35.225Z,9.45
2023-02-22T01:00:32.161Z,10.27
2023-02-22T01:02:59.419Z,10.60
2023-02-22T01:05:29.099Z,11.88
2023-02-22T01:07:57.089Z,9.85
2023-02-22T01:10:26.000Z,12.32
2023-02-22T01:12:54.475Z,10.35
2023-02-22T01:15:23.543Z,10.75
2023-02-22T01:17:53.460Z,12.60
2023-02-22T01:20:26.017Z,10.68
2023-02-22T01:22:55.377Z,10.55
2023-02-22T01:25:28.334Z,9.50
2023-02-22T01:27:56.491Z,10.05
2023-02-22T01:30:29.002Z,9.77
2023-02-22T01:32:57.308Z,10.07
2023-02-22T01:35:28.321Z,10.18
2023-02-22T01:37:56.235Z,10.05
2023-02-22T01:40:30.042Z,12.80
2023-02-22T01:43:00.267Z,9.63
2023-02-22T01:45:32.833Z,10.90
2023-02-22T01:48:16.165Z,9.45
2023-02-22T01:50:54.047Z,9.50
2023-02-22T01:53:25.143Z,10.98
2023-02-22T01:55:53.328Z,10.02
2023-02-22T01:58:23.189Z,9.73
2023-02-22T02:00:49.941Z,9.18
2023-02-22T02:03:27.424Z,8.77
2023-02-22T02:05:58.922Z,10.43
2023-02-22T02:08:51.608Z,9.63
2023-02-22T02:11:21.382Z,10.43
2023-02-22T02:13:52.021Z,9.48
2023-02-22T02:16:19.147Z,10.35
2023-02-22T02:18:46.048Z,9.20
2023-02-22T02:21:28.764Z,9.85
2023-02-22T02:23:59.574Z,11.70
2023-02-22T02:26:29.215Z,8.70
2023-02-22T02:29:23.206Z,9.63
2023-02-22T02:31:55.997Z,9.68
2023-02-22T02:34:37.517Z,9.20
2023-02-22T02:37:14.305Z,10.35
2023-02-22T02:40:06.869Z,10.02
2023-02-22T02:42:40.736Z,10.60
2023-02-22T02:45:14.023Z,9.50
2023-02-22T02:47:45.895Z,8.15
2023-02-22T02:50:33.828Z,9.13
2023-02-22T02:53:04.731Z,10.93
2023-02-22T02:55:32.969Z,9.50
2023-02-22T02:58:00.297Z,10.88
2023-02-22T03:00:39.151Z,9.00
2023-02-22T03:03:22.374Z,8.73
2023-02-22T03:06:16.530Z,9.50
2023-02-22T03:08:50.620Z,8.70
2023-02-22T03:11:25.096Z,8.32
2023-02-22T03:14:18.019Z,9.20
2023-02-22T03:17:06.087Z,9.82
2023-02-22T03:19:39.873Z,8.57
2023-02-22T03:22:20.199Z,9.30
2023-02-22T03:24:56.032Z,9.18
2023-02-22T03:27:34.859Z,8.43
2023-02-22T03:30:24.146Z,8.35
2023-02-22T03:32:57.452Z,8.48
2023-02-22T03:35:31.209Z,8.38
2023-02-22T03:38:02.840Z,10.55
2023-02-22T03:40:43.332Z,7.90
2023-02-22T03:43:18.891Z,8.25
2023-02-22T03:45:50.593Z,7.88
2023-02-22T03:48:57.713Z,8.57
2023-02-22T03:51:43.069Z,8.27
2023-02-22T03:54:16.466Z,7.50
2023-02-22T03:56:54.002Z,10.60
2023-02-22T03:59:25.340Z,9.95
2023-02-22T04:01:55.913Z,8.45
2023-02-22T04:04:24.592Z,7.95
2023-02-22T04:06:53.642Z,6.60
2023-02-22T04:09:21.409Z,7.72
2023-02-22T04:11:48.871Z,6.25
2023-02-22T04:14:16.225Z,8.57
2023-02-22T04:16:43.182Z,9.27
2023-02-22T04:19:10.739Z,8.05
2023-02-22T04:21:38.911Z,8.48
2023-02-22T04:24:09.225Z,8.60
2023-02-22T04:26:36.028Z,8.07
2023-02-22T04:29:04.450Z,8.45
2023-02-22T04:31:37.362Z,8.50
2023-02-22T04:34:04.641Z,8.18
2023-02-22T04:36:34.838Z,9.48
2023-02-22T04:39:02.075Z,9.30
2023-02-22T04:41:31.521Z,8.77
2023-02-22T04:43:58.329Z,7.82
2023-02-22T04:46:26.574Z,8.82
2023-02-22T04:48:54.376Z,9.02
2023-02-22T04:51:24.771Z,8.48
2023-02-22T04:53:59.070Z,7.13
2023-02-22T04:56:26.232Z,6.15
2023-02-22T04:58:53.061Z,8.63
2023-02-22T05:01:19.986Z,7.43
2023-02-22T05:03:47.487Z,8.40
2023-02-22T05:06:14.168Z,7.05
2023-02-22T05:08:40.997Z,7.13
2023-02-22T05:11:08.158Z,7.13
2023-02-22T05:13:34.911Z,7.30
2023-02-22T05:16:02.655Z,6.97
2023-02-22T05:18:29.771Z,6.82
2023-02-22T05:20:56.767Z,7.38
2023-02-22T05:23:23.611Z,7.45
2023-02-22T05:25:50.334Z,8.15
2023-02-22T05:28:17.207Z,6.70
2023-02-22T05:30:43.918Z,7.85
2023-02-22T05:33:10.784Z,8.60
2023-02-22T05:35:37.694Z,9.15
2023-02-22T05:38:05.548Z,6.97
2023-02-22T05:40:32.781Z,6.90
2023-02-22T05:43:00.862Z,8.02
2023-02-22T05:45:28.645Z,6.68
2023-02-22T05:47:56.888Z,9.40
2023-02-22T05:50:24.608Z,6.55
2023-02-22T05:52:52.819Z,7.07
2023-02-22T05:55:21.699Z,8.73
2023-02-22T05:57:48.478Z,7.00
2023-02-22T06:00:23.241Z,7.53
2023-02-22T06:03:10.110Z,7.32
2023-02-22T06:05:39.983Z,8.27
2023-02-22T06:08:07.583Z,7.22
2023-02-22T06:10:34.796Z,6.82
2023-02-22T06:13:02.368Z,6.53
2023-02-22T06:15:29.394Z,7.13
2023-02-22T06:17:57.892Z,6.80
2023-02-22T06:20:26.323Z,7.03
2023-02-22T06:22:55.185Z,6.55
2023-02-22T06:25:24.464Z,7.60
2023-02-22T06:27:51.302Z,7.10
2023-02-22T06:30:21.275Z,7.55
2023-02-22T06:32:48.211Z,6.88
2023-02-22T06:35:15.927Z,7.22
2023-02-22T06:37:42.616Z,7.53
2023-02-22T06:40:11.266Z,6.50
2023-02-22T06:42:39.163Z,6.43
2023-02-22T06:45:05.975Z,6.07
2023-02-22T06:47:32.668Z,6.68
2023-02-22T06:50:01.053Z,6.22
2023-02-22T06:52:27.745Z,8.63
2023-02-22T06:54:54.500Z,6.85
2023-02-22T06:57:21.274Z,6.35
2023-02-22T06:59:47.879Z,5.63
2023-02-22T07:02:15.065Z,5.43
2023-02-22T07:04:43.564Z,7.30
2023-02-22T07:07:10.684Z,6.13
2023-02-22T07:09:37.547Z,7.07
2023-02-22T07:12:05.652Z,7.70
2023-02-22T07:14:49.698Z,5.85
2023-02-22T07:17:16.600Z,6.45
2023-02-22T07:19:43.415Z,7.07
2023-02-22T07:22:10.252Z,7.70
2023-02-22T07:24:37.101Z,7.43
2023-02-22T07:27:04.063Z,7.18
2023-02-22T07:29:31.500Z,6.55
2023-02-22T07:31:58.650Z,5.70
2023-02-22T07:34:25.425Z,6.50
2023-02-22T07:36:52.213Z,6.90
2023-02-22T07:39:19.046Z,6.30
2023-02-22T07:41:45.891Z,6.50
2023-02-22T07:44:22.414Z,6.65
2023-02-22T07:46:50.456Z,5.10
2023-02-22T07:49:17.425Z,5.88
2023-02-22T07:51:44.334Z,6.65
2023-02-22T07:54:11.212Z,5.38
2023-02-22T07:56:38.058Z,5.88
2023-02-22T07:59:04.890Z,6.32
2023-02-22T08:01:31.957Z,7.10
2023-02-22T08:03:58.692Z,6.00
2023-02-22T08:06:25.963Z,6.00
2023-02-22T08:08:52.815Z,6.47
2023-02-22T08:11:19.609Z,5.88
2023-02-22T08:13:46.400Z,6.53
2023-02-22T08:16:13.186Z,5.72
2023-02-22T08:18:41.143Z,5.63
2023-02-22T08:21:07.799Z,7.28
2023-02-22T08:23:34.610Z,6.15
2023-02-22T08:26:10.980Z,5.93
2023-02-22T08:28:37.600Z,5.40
2023-02-22T08:31:07.797Z,5.65
2023-02-22T08:33:35.512Z,5.75
2023-02-22T08:36:02.426Z,4.93
2023-02-22T08:38:31.290Z,8.10
2023-02-22T08:40:58.131Z,5.95
2023-02-22T08:43:24.870Z,7.47
2023-02-22T08:45:52.647Z,5.78
2023-02-22T08:48:19.972Z,6.35
2023-02-22T08:50:47.031Z,5.72
2023-02-22T08:53:15.520Z,5.13
2023-02-22T08:55:42.494Z,5.47
2023-02-22T08:58:09.853Z,5.47
2023-02-22T09:00:39.123Z,5.85
2023-02-22T09:03:13.396Z,5.68
2023-02-22T09:05:41.283Z,5.78
2023-02-22T09:08:07.924Z,4.70
2023-02-22T09:10:35.780Z,5.95
2023-02-22T09:13:04.053Z,6.32
2023-02-22T09:15:32.346Z,5.22
2023-02-22T09:17:59.691Z,6.72
2023-02-22T09:20:27.124Z,6.97
2023-02-22T09:22:55.169Z,5.82
2023-02-22T09:25:23.276Z,5.93
2023-02-22T09:27:52.316Z,5.38
2023-02-22T09:30:39.821Z,6.68
2023-02-22T09:33:10.319Z,5.68
2023-02-22T09:35:42.280Z,4.07
2023-02-22T09:38:10.416Z,4.65
2023-02-22T09:40:45.014Z,5.63
2023-02-22T09:43:33.925Z,6.32
2023-02-22T09:46:21.564Z,4.93
2023-02-22T09:48:51.205Z,4.43
2023-02-22T09:51:20.927Z,5.15
2023-02-22T09:53:52.284Z,5.43
2023-02-22T09:56:20.756Z,5.97
2023-02-22T09:58:52.249Z,4.97
2023-02-22T10:01:29.895Z,4.75
2023-02-22T10:04:04.127Z,4.60
2023-02-22T10:06:33.848Z,4.10
2023-02-22T10:09:07.802Z,5.47
2023-02-22T10:11:41.206Z,5.10
2023-02-22T10:14:31.345Z,4.75
2023-02-22T10:17:14.394Z,5.25
2023-02-22T10:19:47.496Z,5.38
2023-02-22T10:22:35.418Z,4.85
2023-02-22T10:25:12.890Z,5.22
2023-02-22T10:28:03.703Z,4.30
2023-02-22T10:30:35.358Z,4.07
2023-02-22T10:33:13.670Z,4.80
2023-02-22T10:35:41.370Z,5.03
2023-02-22T10:38:20.101Z,5.70
2023-02-22T10:40:54.758Z,5.13
2023-02-22T10:43:23.479Z,4.47
2023-02-22T10:45:56.015Z,5.20
2023-02-22T10:48:26.380Z,4.30
2023-02-22T10:50:59.107Z,6.40
2023-02-22T10:53:27.784Z,5.13
2023-02-22T10:56:13.146Z,4.80
2023-02-22T10:58:47.512Z,4.88
2023-02-22T11:01:22.767Z,4.47
2023-02-22T11:04:09.156Z,3.95
2023-02-22T11:06:37.949Z,4.45
2023-02-22T11:09:17.960Z,3.75
2023-02-22T11:11:47.792Z,4.50
2023-02-22T11:14:27.567Z,4.40
2023-02-22T11:16:58.757Z,3.65
2023-02-22T11:19:28.189Z,4.00
2023-02-22T11:22:09.942Z,4.32
2023-02-22T11:24:50.724Z,5.10
2023-02-22T11:27:56.160Z,4.55
2023-02-22T11:30:29.080Z,4.53
2023-02-22T11:32:59.532Z,4.68
2023-02-22T11:35:28.944Z,4.60
2023-02-22T11:40:40.263Z,5.65
2023-02-22T11:43:18.048Z,4.22
2023-02-22T11:46:02.000Z,4.70
2023-02-22T11:48:36.595Z,3.90
2023-02-22T11:51:14.987Z,4.18
2023-02-22T11:53:52.041Z,6.05
2023-02-22T11:56:38.017Z,6.03
2023-02-22T11:59:26.387Z,5.68
2023-02-22T12:02:19.200Z,4.95
2023-02-22T12:05:10.708Z,4.70
2023-02-22T12:07:50.638Z,4.38
2023-02-22T12:10:41.235Z,4.90
2023-02-22T12:13:40.251Z,4.35
2023-02-22T12:16:44.471Z,4.28
2023-02-22T12:19:26.968Z,5.13
2023-02-22T12:21:58.471Z,4.53
2023-02-22T12:24:30.643Z,4.28
2023-02-22T12:27:05.737Z,5.47
2023-02-22T12:29:39.359Z,4.68
2023-02-22T12:32:19.881Z,4.68
2023-02-22T12:34:55.309Z,4.80
2023-02-22T12:37:44.108Z,5.32
2023-02-22T12:40:17.009Z,4.70
2023-02-22T12:42:55.740Z,4.18
2023-02-22T12:45:44.828Z,4.65
2023-02-22T12:48:32.190Z,5.55
2023-02-22T12:51:36.264Z,5.00
2023-02-22T12:54:41.966Z,5.03
2023-02-22T12:57:17.083Z,5.10
2023-02-22T13:00:02.832Z,4.32
2023-02-22T13:02:43.397Z,4.63
2023-02-22T13:05:20.786Z,4.80
2023-02-22T13:08:13.736Z,4.55
2023-02-22T13:10:52.319Z,4.60
2023-02-22T13:13:45.585Z,3.77
2023-02-22T13:16:28.425Z,4.82
2023-02-22T13:19:14.547Z,3.67
2023-02-22T13:22:03.740Z,4.55
2023-02-22T13:24:49.375Z,3.80
2023-02-22T13:27:22.990Z,3.40
2023-02-22T13:29:57.451Z,4.13
2023-02-22T13:32:33.696Z,4.55
2023-02-22T13:35:29.318Z,4.03
2023-02-22T13:38:00.532Z,3.92
2023-02-22T13:40:56.472Z,3.90
2023-02-22T13:44:04.399Z,3.88
2023-02-22T13:46:49.169Z,3.70
2023-02-22T13:49:34.032Z,4.25
2023-02-22T13:52:12.329Z,4.05
2023-02-22T13:54:46.698Z,3.53
2023-02-22T13:57:28.404Z,4.00
2023-02-22T14:00:20.939Z,4.30
2023-02-22T14:03:02.698Z,3.95
2023-02-22T14:05:41.613Z,3.95
2023-02-22T14:08:08.425Z,4.00
2023-02-22T14:10:40.251Z,4.07
2023-02-22T14:13:08.084Z,3.58
2023-02-22T14:15:35.668Z,4.82
2023-02-22T14:18:04.842Z,4.18
2023-02-22T14:20:37.045Z,3.80
2023-02-22T14:23:42.002Z,4.28
2023-02-22T14:26:11.768Z,3.72
2023-02-22T14:28:41.336Z,4.03
2023-02-22T14:34:13.997Z,4.40
2023-02-22T14:37:04.504Z,4.47
2023-02-22T14:39:51.922Z,3.63
2023-02-22T14:42:27.764Z,4.25
2023-02-22T14:45:12.191Z,3.58
2023-02-22T14:47:49.613Z,4.25
2023-02-22T14:50:34.716Z,3.97
2023-02-22T14:53:25.319Z,3.22
2023-02-22T14:56:07.439Z,3.80
2023-02-22T14:58:58.960Z,4.07
2023-02-22T15:04:30.962Z,3.90
2023-02-22T15:07:01.053Z,4.35
2023-02-22T15:09:34.726Z,4.03
2023-02-22T15:12:05.182Z,3.42
2023-02-22T15:14:37.859Z,4.03
2023-02-22T15:17:12.634Z,4.18
2023-02-22T15:19:42.308Z,3.70
2023-02-22T15:22:21.171Z,4.10
2023-02-22T15:25:00.813Z,4.00
2023-02-22T15:27:28.538Z,3.15
2023-02-22T15:30:06.525Z,3.83
2023-02-22T15:32:53.280Z,3.95
2023-02-22T15:35:28.349Z,4.40
2023-02-22T15:38:20.059Z,3.67
2023-02-22T15:40:50.672Z,3.95
2023-02-22T15:43:24.589Z,4.55
2023-02-22T15:45:52.227Z,3.45
2023-02-22T15:48:19.329Z,3.60
2023-02-22T15:51:10.531Z,3.53
2023-02-22T15:53:45.131Z,3.58
2023-02-22T15:56:18.417Z,3.55
2023-02-22T15:58:47.527Z,3.70
2023-02-22T16:01:18.942Z,3.92
2023-02-22T16:03:56.054Z,3.10
2023-02-22T16:06:33.409Z,3.45
2023-02-22T16:09:06.876Z,4.20
2023-02-22T16:11:39.835Z,3.80
2023-02-22T16:14:24.735Z,3.78
2023-02-22T16:17:35.460Z,3.58
2023-02-22T16:20:22.132Z,3.35
2023-02-22T16:22:49.925Z,3.50
2023-02-22T16:25:19.466Z,4.53
2023-02-22T16:30:37.501Z,3.95
2023-02-22T16:33:10.009Z,3.30
2023-02-22T16:35:36.806Z,4.10
2023-02-22T16:38:07.497Z,3.70
2023-02-22T16:40:39.870Z,3.67
2023-02-22T16:43:11.680Z,3.55
2023-02-22T16:45:39.681Z,3.40
2023-02-22T16:50:48.489Z,4.40
2023-02-22T16:53:20.033Z,5.07
2023-02-22T16:55:57.467Z,3.90
2023-02-22T16:58:27.958Z,4.35
2023-02-22T17:00:57.565Z,4.47
2023-02-22T17:03:25.800Z,4.38
2023-02-22T17:05:53.245Z,3.78
2023-02-22T17:08:20.048Z,4.10
2023-02-22T17:10:46.958Z,4.05
2023-02-22T17:13:22.957Z,4.50
2023-02-22T17:15:51.016Z,3.60
2023-02-22T17:18:22.817Z,3.90
2023-02-22T17:20:51.520Z,3.50
2023-02-22T17:23:19.507Z,4.70
2023-02-22T17:25:53.570Z,3.80
2023-02-22T17:28:24.594Z,3.90
2023-02-22T17:30:52.933Z,4.32
2023-02-22T17:33:26.585Z,3.83
2023-02-22T17:35:55.300Z,4.30
2023-02-22T17:38:22.868Z,4.23
2023-02-22T17:40:52.018Z,4.32
2023-02-22T17:43:19.474Z,3.67
2023-02-22T17:45:46.998Z,3.95
2023-02-22T17:48:16.247Z,3.20
2023-02-22T17:50:44.456Z,3.50
2023-02-22T17:53:11.259Z,3.97
2023-02-22T17:55:40.585Z,4.22
2023-02-22T18:00:37.085Z,4.20
2023-02-22T18:03:09.708Z,3.97
2023-02-22T18:05:46.353Z,4.28
2023-02-22T18:08:13.940Z,4.47
2023-02-22T18:10:42.340Z,5.20
2023-02-22T18:13:12.810Z,4.53
2023-02-22T18:15:40.281Z,4.85
2023-02-22T18:18:07.228Z,5.75
2023-02-22T18:20:39.958Z,4.95
2023-02-22T18:23:08.126Z,5.15
2023-02-22T18:25:36.471Z,5.18
2023-02-22T18:28:06.381Z,4.57
2023-02-22T18:30:37.896Z,5.65
2023-02-22T18:33:04.730Z,4.55
2023-02-22T18:35:31.736Z,5.78
2023-02-22T18:37:58.455Z,5.40
2023-02-22T18:40:25.108Z,5.35
2023-02-22T18:42:51.802Z,4.85
2023-02-22T18:45:19.326Z,5.55
2023-02-22T18:47:46.055Z,5.60
2023-02-22T18:50:13.936Z,4.97
2023-02-22T18:52:46.551Z,5.03
2023-02-22T18:55:18.882Z,5.18
2023-02-22T18:57:46.603Z,5.00
2023-02-22T19:00:16.743Z,4.75
2023-02-22T19:02:43.579Z,6.20
2023-02-22T19:05:12.067Z,6.05
2023-02-22T19:07:39.589Z,5.22
2023-02-22T19:10:07.533Z,5.60
2023-02-22T19:12:34.282Z,4.82
2023-02-22T19:15:01.660Z,4.60
2023-02-22T19:17:31.065Z,5.45
2023-02-22T19:19:58.058Z,4.75
2023-02-22T19:22:32.684Z,6.35
2023-02-22T19:25:01.211Z,5.38
2023-02-22T19:27:31.427Z,4.63
2023-02-22T19:29:58.504Z,6.70
2023-02-22T19:32:25.522Z,4.60
2023-02-22T19:35:02.134Z,5.53
2023-02-22T19:37:34.121Z,5.05
2023-02-22T19:40:02.551Z,5.28
2023-02-22T19:42:29.772Z,4.53
2023-02-22T19:44:56.732Z,5.45
2023-02-22T19:47:23.596Z,5.32
2023-02-22T19:49:50.666Z,6.28
2023-02-22T19:52:17.496Z,4.95
2023-02-22T19:54:44.619Z,5.50
2023-02-22T19:57:11.625Z,5.20
2023-02-22T19:59:39.049Z,5.65
2023-02-22T20:02:07.740Z,5.45
2023-02-22T20:04:37.375Z,5.43
2023-02-22T20:07:04.052Z,5.25
2023-02-22T20:09:36.571Z,5.82
2023-02-22T20:12:04.841Z,4.80
2023-02-22T20:14:31.600Z,6.13
2023-02-22T20:16:58.839Z,4.57
2023-02-22T20:19:26.821Z,5.20
2023-02-22T20:21:58.192Z,6.10
2023-02-22T20:24:25.684Z,5.80
2023-02-22T20:26:57.293Z,6.38
2023-02-22T20:29:29.634Z,5.60
2023-02-22T20:31:58.448Z,6.28
2023-02-22T20:34:31.803Z,6.78
2023-02-22T20:36:59.165Z,5.78
2023-02-22T20:39:25.927Z,5.55
2023-02-22T20:41:54.499Z,4.32
2023-02-22T20:44:21.830Z,5.27
2023-02-22T20:46:49.101Z,5.45
2023-02-22T20:49:18.776Z,5.13
2023-02-22T20:51:48.445Z,4.65
2023-02-22T20:54:16.218Z,4.53
2023-02-22T20:56:45.019Z,5.07
2023-02-22T20:59:14.197Z,4.38
2023-02-22T21:01:42.153Z,5.45
2023-02-22T21:04:10.344Z,4.03
2023-02-22T21:06:39.476Z,5.85
2023-02-22T21:09:11.612Z,6.70
2023-02-22T21:11:40.039Z,3.97
2023-02-22T21:14:06.741Z,4.25
2023-02-22T21:16:36.485Z,5.22
2023-02-22T21:19:06.474Z,4.47
2023-02-22T21:21:33.918Z,7.82
2023-02-22T21:24:01.765Z,5.15
2023-02-22T21:26:31.589Z,5.70
2023-02-22T21:29:00.693Z,4.57
2023-02-22T21:31:28.391Z,4.10
2023-02-22T21:33:57.742Z,5.05
2023-02-22T21:36:25.830Z,4.82
2023-02-22T21:39:01.128Z,5.47
2023-02-22T21:41:30.967Z,5.07
2023-02-22T21:43:59.087Z,5.38
2023-02-22T21:46:29.146Z,4.53
2023-02-22T21:48:58.578Z,4.60
2023-02-22T21:51:31.516Z,5.28
2023-02-22T21:54:03.375Z,5.88
2023-02-22T21:56:32.426Z,5.30
2023-02-22T21:59:02.997Z,4.43
2023-02-22T22:01:32.739Z,4.63
2023-02-22T22:04:01.718Z,5.25
2023-02-22T22:06:30.242Z,4.32
2023-02-22T22:08:59.837Z,6.03
2023-02-22T22:11:26.773Z,4.65
2023-02-22T22:13:57.639Z,4.80
2023-02-22T22:16:27.241Z,6.22
2023-02-22T22:18:54.836Z,5.18
2023-02-22T22:21:24.370Z,4.97
2023-02-22T22:26:24.721Z,5.63
2023-02-22T22:28:58.214Z,5.00
2023-02-22T22:31:26.466Z,4.78
2023-02-22T22:33:56.387Z,5.75
2023-02-22T22:36:24.864Z,5.03
2023-02-22T22:38:52.897Z,4.95
2023-02-22T22:41:21.596Z,4.90
2023-02-22T22:43:48.368Z,6.03
2023-02-22T22:46:17.645Z,4.88
2023-02-22T22:48:47.058Z,4.97
2023-02-22T22:51:18.547Z,5.57
2023-02-22T22:53:47.316Z,4.57
2023-02-22T22:56:20.147Z,5.35
2023-02-22T22:58:51.849Z,5.03
2023-02-22T23:01:26.788Z,4.88
2023-02-22T23:03:59.799Z,5.13
2023-02-22T23:06:44.378Z,4.90
2023-02-22T23:09:25.564Z,5.95
2023-02-22T23:11:56.572Z,4.82
2023-02-22T23:14:26.956Z,4.40
2023-02-22T23:17:03.095Z,4.75
2023-02-22T23:19:36.757Z,5.18
2023-02-22T23:22:07.919Z,5.35
2023-02-22T23:24:36.424Z,5.60
2023-02-22T23:27:07.217Z,5.63
2023-02-22T23:29:38.120Z,5.20
2023-02-22T23:32:08.876Z,5.18
2023-02-22T23:34:36.989Z,5.38
2023-02-22T23:37:03.746Z,6.10
2023-02-22T23:39:30.483Z,6.10
2023-02-22T23:41:59.421Z,5.50
2023-02-22T23:44:27.527Z,5.43
2023-02-22T23:46:55.261Z,5.45
2023-02-22T23:49:25.085Z,4.85
2023-02-22T23:54:20.923Z,5.03
2023-02-22T23:56:56.415Z,5.47
2023-02-22T23:59:25.488Z,4.70
